sensor_id;sensor_type;location;lat;lon;timestamp;temperature;humidity
27795;DHT22;15176;50.844;4.412;2023-02-24T00:00:09;9.50;99.90
27795;DHT22;15176;50.844;4.412;2023-02-24T00:02:54;9.70;99.90
27795;DHT22;15176;50.844;4.412;2023-02-24T00:05:19;9.70;99.90
27795;DHT22;15176;50.844;4.412;2023-02-24T00:07:48;9.40;99.90
27795;DHT22;15176;50.844;4.412;2023-02-24T00:10:14;9.30;99.90
27795;DHT22;15176;50.844;4.412;2023-02-24T00:12:44;9.40;99.90
27795;DHT22;15176;50.844;4.412;2023-02-24T00:15:14;9.40;99.90
27795;DHT22;15176;50.844;4.412;2023-02-24T00:17:41;9.40;99.90
27795;DHT22;15176;50.844;4.412;2023-02-24T00:20:11;9.60;99.90
27795;DHT22;15176;50.844;4.412;2023-02-24T00:22:41;9.60;99.90
27795;DHT22;15176;50.844;4.412;2023-02-24T00:25:07;9.70;99.90
27795;DHT22;15176;50.844;4.412;2023-02-24T00:27:33;9.70;99.90
27795;DHT22;15176;50.844;4.412;2023-02-24T00:30:00;9.80;99.90
27795;DHT22;15176;50.844;4.412;2023-02-24T00:32:26;9.60;99.90
27795;DHT22;15176;50.844;4.412;2023-02-24T00:34:52;9.60;99.90
27795;DHT22;15176;50.844;4.412;2023-02-24T00:37:20;9.60;99.90
27795;DHT22;15176;50.844;4.412;2023-02-24T00:39:49;9.70;99.90
27795;DHT22;15176;50.844;4.412;2023-02-24T00:42:14;9.80;99.90
27795;DHT22;15176;50.844;4.412;2023-02-24T00:44:43;9.90;99.90
27795;DHT22;15176;50.844;4.412;2023-02-24T00:47:10;9.90;99.90
27795;DHT22;15176;50.844;4.412;2023-02-24T00:49:37;10.20;99.90
27795;DHT22;15176;50.844;4.412;2023-02-24T00:52:26;10.20;99.90
27795;DHT22;15176;50.844;4.412;2023-02-24T00:54:52;10.20;99.90
27795;DHT22;15176;50.844;4.412;2023-02-24T00:57:18;10.10;99.90
27795;DHT22;15176;50.844;4.412;2023-02-24T00:59:45;9.90;99.90
27795;DHT22;15176;50.844;4.412;2023-02-24T01:02:16;9.80;99.90
27795;DHT22;15176;50.844;4.412;2023-02-24T01:04:41;9.80;99.90
27795;DHT22;15176;50.844;4.412;2023-02-24T01:07:09;9.70;99.90
27795;DHT22;15176;50.844;4.412;2023-02-24T01:09:36;9.80;99.90
27795;DHT22;15176;50.844;4.412;2023-02-24T01:12:05;10.10;99.90
27795;DHT22;15176;50.844;4.412;2023-02-24T01:14:48;10.10;99.90
27795;DHT22;15176;50.844;4.412;2023-02-24T01:17:15;10.00;99.90
27795;DHT22;15176;50.844;4.412;2023-02-24T01:19:43;10.00;99.90
27795;DHT22;15176;50.844;4.412;2023-02-24T01:22:12;9.90;99.90
27795;DHT22;15176;50.844;4.412;2023-02-24T01:24:39;9.80;99.90
27795;DHT22;15176;50.844;4.412;2023-02-24T01:27:06;9.80;99.90
27795;DHT22;15176;50.844;4.412;2023-02-24T01:29:32;9.80;99.90
27795;DHT22;15176;50.844;4.412;2023-02-24T01:32:07;10.10;99.90
27795;DHT22;15176;50.844;4.412;2023-02-24T01:34:37;10.20;99.90
27795;DHT22;15176;50.844;4.412;2023-02-24T01:37:03;10.10;99.90
27795;DHT22;15176;50.844;4.412;2023-02-24T01:39:29;10.00;99.90
27795;DHT22;15176;50.844;4.412;2023-02-24T01:41:55;10.10;99.90
27795;DHT22;15176;50.844;4.412;2023-02-24T01:46:57;10.10;99.90
27795;DHT22;15176;50.844;4.412;2023-02-24T01:49:33;9.90;99.90
27795;DHT22;15176;50.844;4.412;2023-02-24T01:52:08;9.70;99.90
27795;DHT22;15176;50.844;4.412;2023-02-24T01:54:48;9.90;99.90
27795;DHT22;15176;50.844;4.412;2023-02-24T01:57:17;10.00;99.90
27795;DHT22;15176;50.844;4.412;2023-02-24T01:59:50;9.90;99.90
27795;DHT22;15176;50.844;4.412;2023-02-24T02:02:17;9.80;99.90
27795;DHT22;15176;50.844;4.412;2023-02-24T02:04:57;9.90;99.90
27795;DHT22;15176;50.844;4.412;2023-02-24T02:07:26;9.70;99.90
27795;DHT22;15176;50.844;4.412;2023-02-24T02:09:53;9.50;99.90
27795;DHT22;15176;50.844;4.412;2023-02-24T02:12:20;9.40;99.90
27795;DHT22;15176;50.844;4.412;2023-02-24T02:14:49;9.10;99.90
27795;DHT22;15176;50.844;4.412;2023-02-24T02:17:30;9.10;99.90
27795;DHT22;15176;50.844;4.412;2023-02-24T02:31:17;9.40;99.90
27795;DHT22;15176;50.844;4.412;2023-02-24T02:47:47;9.50;99.90
27795;DHT22;15176;50.844;4.412;2023-02-24T02:50:31;9.30;99.90
27795;DHT22;15176;50.844;4.412;2023-02-24T02:53:04;9.10;99.90
27795;DHT22;15176;50.844;4.412;2023-02-24T02:58:07;9.20;99.90
27795;DHT22;15176;50.844;4.412;2023-02-24T03:00:37;9.30;99.90
27795;DHT22;15176;50.844;4.412;2023-02-24T03:03:10;9.50;99.90
27795;DHT22;15176;50.844;4.412;2023-02-24T03:05:42;9.50;99.90
27795;DHT22;15176;50.844;4.412;2023-02-24T03:08:13;9.40;99.90
27795;DHT22;15176;50.844;4.412;2023-02-24T03:10:43;9.40;99.90
27795;DHT22;15176;50.844;4.412;2023-02-24T03:13:11;9.40;99.90
27795;DHT22;15176;50.844;4.412;2023-02-24T03:15:39;9.40;99.90
27795;DHT22;15176;50.844;4.412;2023-02-24T03:18:11;9.50;99.90
27795;DHT22;15176;50.844;4.412;2023-02-24T03:20:51;9.70;99.90
27795;DHT22;15176;50.844;4.412;2023-02-24T03:23:24;9.80;99.90
27795;DHT22;15176;50.844;4.412;2023-02-24T03:26:12;9.60;99.90
27795;DHT22;15176;50.844;4.412;2023-02-24T03:28:52;9.70;99.90
27795;DHT22;15176;50.844;4.412;2023-02-24T03:31:54;9.70;99.90
27795;DHT22;15176;50.844;4.412;2023-02-24T03:37:14;9.60;99.90
27795;DHT22;15176;50.844;4.412;2023-02-24T03:39:40;9.60;99.90
27795;DHT22;15176;50.844;4.412;2023-02-24T03:42:15;9.70;99.90
27795;DHT22;15176;50.844;4.412;2023-02-24T03:44:45;9.60;99.90
27795;DHT22;15176;50.844;4.412;2023-02-24T03:47:12;9.60;99.90
27795;DHT22;15176;50.844;4.412;2023-02-24T03:49:39;9.80;99.90
27795;DHT22;15176;50.844;4.412;2023-02-24T03:52:44;9.80;99.90
27795;DHT22;15176;50.844;4.412;2023-02-24T04:00:39;9.80;99.90
27795;DHT22;15176;50.844;4.412;2023-02-24T04:03:32;9.80;99.90
27795;DHT22;15176;50.844;4.412;2023-02-24T04:12:20;9.80;99.90
27795;DHT22;15176;50.844;4.412;2023-02-24T04:17:21;9.80;99.90
27795;DHT22;15176;50.844;4.412;2023-02-24T04:19:55;9.90;99.90
27795;DHT22;15176;50.844;4.412;2023-02-24T04:22:23;10.10;99.90
27795;DHT22;15176;50.844;4.412;2023-02-24T04:24:54;10.20;99.90
27795;DHT22;15176;50.844;4.412;2023-02-24T04:27:22;10.40;99.90
27795;DHT22;15176;50.844;4.412;2023-02-24T04:29:54;10.40;99.90
27795;DHT22;15176;50.844;4.412;2023-02-24T04:32:23;10.40;99.90
27795;DHT22;15176;50.844;4.412;2023-02-24T04:34:51;10.40;99.90
27795;DHT22;15176;50.844;4.412;2023-02-24T04:37:17;10.60;99.90
27795;DHT22;15176;50.844;4.412;2023-02-24T04:39:48;10.60;99.90
27795;DHT22;15176;50.844;4.412;2023-02-24T04:42:16;10.60;99.90
27795;DHT22;15176;50.844;4.412;2023-02-24T04:44:44;10.50;99.90
27795;DHT22;15176;50.844;4.412;2023-02-24T04:47:11;10.60;99.90
27795;DHT22;15176;50.844;4.412;2023-02-24T04:49:36;10.30;99.90
27795;DHT22;15176;50.844;4.412;2023-02-24T04:52:06;10.30;99.90
27795;DHT22;15176;50.844;4.412;2023-02-24T04:54:33;10.40;99.90
27795;DHT22;15176;50.844;4.412;2023-02-24T04:56:59;10.40;99.90
27795;DHT22;15176;50.844;4.412;2023-02-24T04:59:26;10.30;99.90
27795;DHT22;15176;50.844;4.412;2023-02-24T05:01:52;10.30;99.90
27795;DHT22;15176;50.844;4.412;2023-02-24T05:04:18;10.40;99.90
27795;DHT22;15176;50.844;4.412;2023-02-24T05:06:45;10.40;99.90
27795;DHT22;15176;50.844;4.412;2023-02-24T05:09:15;10.40;99.90
27795;DHT22;15176;50.844;4.412;2023-02-24T05:11:44;10.40;99.90
27795;DHT22;15176;50.844;4.412;2023-02-24T05:14:12;10.40;99.90
27795;DHT22;15176;50.844;4.412;2023-02-24T05:16:42;10.20;99.90
27795;DHT22;15176;50.844;4.412;2023-02-24T05:19:13;10.30;99.90
27795;DHT22;15176;50.844;4.412;2023-02-24T05:21:57;9.90;99.90
27795;DHT22;15176;50.844;4.412;2023-02-24T05:24:24;9.70;99.90
27795;DHT22;15176;50.844;4.412;2023-02-24T05:26:51;9.60;99.90
27795;DHT22;15176;50.844;4.412;2023-02-24T05:29:31;9.30;99.90
27795;DHT22;15176;50.844;4.412;2023-02-24T05:31:58;9.20;99.90
27795;DHT22;15176;50.844;4.412;2023-02-24T05:34:28;9.40;99.90
27795;DHT22;15176;50.844;4.412;2023-02-24T05:36:58;9.40;99.90
27795;DHT22;15176;50.844;4.412;2023-02-24T05:39:26;9.50;99.90
27795;DHT22;15176;50.844;4.412;2023-02-24T05:41:53;9.80;99.90
27795;DHT22;15176;50.844;4.412;2023-02-24T05:44:22;9.90;99.90
27795;DHT22;15176;50.844;4.412;2023-02-24T05:46:50;10.20;99.90
27795;DHT22;15176;50.844;4.412;2023-02-24T05:49:22;10.30;99.90
27795;DHT22;15176;50.844;4.412;2023-02-24T05:51:52;10.10;99.90
27795;DHT22;15176;50.844;4.412;2023-02-24T05:54:33;10.00;99.90
27795;DHT22;15176;50.844;4.412;2023-02-24T05:57:05;10.00;99.90
27795;DHT22;15176;50.844;4.412;2023-02-24T05:59:31;10.10;99.90
27795;DHT22;15176;50.844;4.412;2023-02-24T06:01:59;9.70;99.90
27795;DHT22;15176;50.844;4.412;2023-02-24T06:04:26;9.60;99.90
27795;DHT22;15176;50.844;4.412;2023-02-24T06:07:17;9.50;99.90
27795;DHT22;15176;50.844;4.412;2023-02-24T06:09:47;10.10;99.90
27795;DHT22;15176;50.844;4.412;2023-02-24T06:12:19;10.00;99.90
27795;DHT22;15176;50.844;4.412;2023-02-24T06:14:45;10.20;99.90
27795;DHT22;15176;50.844;4.412;2023-02-24T06:17:15;10.60;99.90
27795;DHT22;15176;50.844;4.412;2023-02-24T06:19:44;10.80;99.90
27795;DHT22;15176;50.844;4.412;2023-02-24T06:22:16;10.60;99.90
27795;DHT22;15176;50.844;4.412;2023-02-24T06:24:43;10.50;99.90
27795;DHT22;15176;50.844;4.412;2023-02-24T06:27:10;10.60;99.90
27795;DHT22;15176;50.844;4.412;2023-02-24T06:29:42;10.60;99.90
27795;DHT22;15176;50.844;4.412;2023-02-24T06:32:09;10.50;99.90
27795;DHT22;15176;50.844;4.412;2023-02-24T06:34:37;10.90;99.90
27795;DHT22;15176;50.844;4.412;2023-02-24T06:37:04;10.20;99.90
27795;DHT22;15176;50.844;4.412;2023-02-24T06:39:30;9.50;99.90
27795;DHT22;15176;50.844;4.412;2023-02-24T06:42:02;10.20;99.90
27795;DHT22;15176;50.844;4.412;2023-02-24T06:44:35;10.10;99.90
27795;DHT22;15176;50.844;4.412;2023-02-24T06:47:03;10.50;99.90
27795;DHT22;15176;50.844;4.412;2023-02-24T06:49:29;10.70;99.90
27795;DHT22;15176;50.844;4.412;2023-02-24T06:51:56;10.60;99.90
27795;DHT22;15176;50.844;4.412;2023-02-24T06:54:26;10.70;99.90
27795;DHT22;15176;50.844;4.412;2023-02-24T06:56:56;11.00;99.90
27795;DHT22;15176;50.844;4.412;2023-02-24T06:59:23;11.10;99.90
27795;DHT22;15176;50.844;4.412;2023-02-24T07:01:54;11.10;99.90
27795;DHT22;15176;50.844;4.412;2023-02-24T07:04:19;10.60;99.90
27795;DHT22;15176;50.844;4.412;2023-02-24T07:06:51;10.60;99.90
27795;DHT22;15176;50.844;4.412;2023-02-24T07:09:20;10.30;99.90
27795;DHT22;15176;50.844;4.412;2023-02-24T07:11:47;11.00;99.90
27795;DHT22;15176;50.844;4.412;2023-02-24T07:14:21;11.60;99.90
27795;DHT22;15176;50.844;4.412;2023-02-24T07:16:47;11.60;99.90
27795;DHT22;15176;50.844;4.412;2023-02-24T07:19:20;11.60;99.90
27795;DHT22;15176;50.844;4.412;2023-02-24T07:21:46;11.50;99.90
27795;DHT22;15176;50.844;4.412;2023-02-24T07:24:17;11.10;99.90
27795;DHT22;15176;50.844;4.412;2023-02-24T07:27:00;11.20;99.90
27795;DHT22;15176;50.844;4.412;2023-02-24T07:29:28;11.10;99.90
27795;DHT22;15176;50.844;4.412;2023-02-24T07:31:54;11.20;99.90
27795;DHT22;15176;50.844;4.412;2023-02-24T07:34:22;12.00;99.90
27795;DHT22;15176;50.844;4.412;2023-02-24T07:36:53;12.60;99.90
27795;DHT22;15176;50.844;4.412;2023-02-24T07:39:20;13.10;99.90
27795;DHT22;15176;50.844;4.412;2023-02-24T07:41:51;12.90;99.90
27795;DHT22;15176;50.844;4.412;2023-02-24T07:44:18;12.50;99.90
27795;DHT22;15176;50.844;4.412;2023-02-24T07:46:46;12.10;99.90
27795;DHT22;15176;50.844;4.412;2023-02-24T07:49:18;12.30;99.90
27795;DHT22;15176;50.844;4.412;2023-02-24T07:51:46;12.50;99.90
27795;DHT22;15176;50.844;4.412;2023-02-24T07:54:21;12.30;99.90
27795;DHT22;15176;50.844;4.412;2023-02-24T07:56:48;12.40;99.90
27795;DHT22;15176;50.844;4.412;2023-02-24T08:01:50;11.70;99.90
27795;DHT22;15176;50.844;4.412;2023-02-24T08:04:21;11.90;99.90
27795;DHT22;15176;50.844;4.412;2023-02-24T08:06:48;11.70;99.90
27795;DHT22;15176;50.844;4.412;2023-02-24T08:09:25;12.10;99.90
27795;DHT22;15176;50.844;4.412;2023-02-24T08:12:10;11.40;99.90
27795;DHT22;15176;50.844;4.412;2023-02-24T08:14:36;10.90;99.90
27795;DHT22;15176;50.844;4.412;2023-02-24T08:17:10;10.60;99.90
27795;DHT22;15176;50.844;4.412;2023-02-24T08:19:36;10.50;99.90
27795;DHT22;15176;50.844;4.412;2023-02-24T08:22:06;10.70;99.90
27795;DHT22;15176;50.844;4.412;2023-02-24T08:24:55;10.80;99.90
27795;DHT22;15176;50.844;4.412;2023-02-24T08:27:25;10.80;99.90
27795;DHT22;15176;50.844;4.412;2023-02-24T08:29:55;11.40;99.90
27795;DHT22;15176;50.844;4.412;2023-02-24T08:32:31;10.80;99.90
27795;DHT22;15176;50.844;4.412;2023-02-24T08:35:13;10.60;99.90
27795;DHT22;15176;50.844;4.412;2023-02-24T08:37:44;10.90;99.90
27795;DHT22;15176;50.844;4.412;2023-02-24T08:40:20;10.40;99.90
27795;DHT22;15176;50.844;4.412;2023-02-24T08:43:07;9.90;99.90
27795;DHT22;15176;50.844;4.412;2023-02-24T08:46:27;10.00;99.90
27795;DHT22;15176;50.844;4.412;2023-02-24T08:48:58;10.40;99.90
27795;DHT22;15176;50.844;4.412;2023-02-24T08:51:29;10.40;99.90
27795;DHT22;15176;50.844;4.412;2023-02-24T08:54:02;10.20;99.90
27795;DHT22;15176;50.844;4.412;2023-02-24T08:56:30;10.30;99.90
27795;DHT22;15176;50.844;4.412;2023-02-24T08:59:01;10.00;99.90
27795;DHT22;15176;50.844;4.412;2023-02-24T09:01:38;9.90;99.90
27795;DHT22;15176;50.844;4.412;2023-02-24T09:04:08;9.90;99.90
27795;DHT22;15176;50.844;4.412;2023-02-24T09:06:44;10.30;99.90
27795;DHT22;15176;50.844;4.412;2023-02-24T09:09:12;10.30;99.90
27795;DHT22;15176;50.844;4.412;2023-02-24T09:11:46;10.10;99.90
27795;DHT22;15176;50.844;4.412;2023-02-24T09:14:16;9.80;99.90
27795;DHT22;15176;50.844;4.412;2023-02-24T09:16:47;9.60;99.90
27795;DHT22;15176;50.844;4.412;2023-02-24T09:22:05;9.50;99.90
27795;DHT22;15176;50.844;4.412;2023-02-24T09:24:42;9.40;99.90
27795;DHT22;15176;50.844;4.412;2023-02-24T09:27:09;9.10;99.90
27795;DHT22;15176;50.844;4.412;2023-02-24T09:29:41;9.30;99.90
27795;DHT22;15176;50.844;4.412;2023-02-24T09:32:14;10.60;99.90
27795;DHT22;15176;50.844;4.412;2023-02-24T09:34:41;11.10;99.90
27795;DHT22;15176;50.844;4.412;2023-02-24T09:37:12;11.80;99.90
27795;DHT22;15176;50.844;4.412;2023-02-24T09:39:53;12.20;99.90
27795;DHT22;15176;50.844;4.412;2023-02-24T09:42:28;12.90;99.90
27795;DHT22;15176;50.844;4.412;2023-02-24T09:45:06;13.20;99.90
27795;DHT22;15176;50.844;4.412;2023-02-24T09:47:47;13.50;99.90
27795;DHT22;15176;50.844;4.412;2023-02-24T09:50:37;13.40;99.20
27795;DHT22;15176;50.844;4.412;2023-02-24T09:53:13;12.90;99.70
27795;DHT22;15176;50.844;4.412;2023-02-24T09:56:02;12.60;99.90
27795;DHT22;15176;50.844;4.412;2023-02-24T09:58:48;12.50;99.90
27795;DHT22;15176;50.844;4.412;2023-02-24T10:07:01;11.60;99.90
27795;DHT22;15176;50.844;4.412;2023-02-24T10:09:38;11.90;99.90
27795;DHT22;15176;50.844;4.412;2023-02-24T10:12:12;12.00;99.20
27795;DHT22;15176;50.844;4.412;2023-02-24T10:15:14;12.30;99.90
27795;DHT22;15176;50.844;4.412;2023-02-24T10:18:03;12.00;97.80
27795;DHT22;15176;50.844;4.412;2023-02-24T10:20:39;11.30;99.90
27795;DHT22;15176;50.844;4.412;2023-02-24T10:26:42;11.30;99.90
27795;DHT22;15176;50.844;4.412;2023-02-24T10:29:21;11.40;99.90
27795;DHT22;15176;50.844;4.412;2023-02-24T10:34:31;10.70;99.90
27795;DHT22;15176;50.844;4.412;2023-02-24T10:37:41;10.50;99.90
27795;DHT22;15176;50.844;4.412;2023-02-24T10:39:49;10.10;99.90
27795;DHT22;15176;50.844;4.412;2023-02-24T10:42:24;10.10;99.90
27795;DHT22;15176;50.844;4.412;2023-02-24T10:45:11;10.30;99.90
27795;DHT22;15176;50.844;4.412;2023-02-24T10:47:44;9.90;99.90
27795;DHT22;15176;50.844;4.412;2023-02-24T10:50:25;10.10;99.90
27795;DHT22;15176;50.844;4.412;2023-02-24T10:52:53;10.50;99.90
27795;DHT22;15176;50.844;4.412;2023-02-24T10:55:32;10.80;99.90
27795;DHT22;15176;50.844;4.412;2023-02-24T11:01:28;10.70;99.90
27795;DHT22;15176;50.844;4.412;2023-02-24T11:04:13;10.30;99.90
27795;DHT22;15176;50.844;4.412;2023-02-24T11:07:13;10.20;99.90
27795;DHT22;15176;50.844;4.412;2023-02-24T11:10:01;9.60;99.90
27795;DHT22;15176;50.844;4.412;2023-02-24T11:12:44;9.50;99.90
27795;DHT22;15176;50.844;4.412;2023-02-24T11:15:51;9.40;99.90
27795;DHT22;15176;50.844;4.412;2023-02-24T11:18:38;10.20;99.90
27795;DHT22;15176;50.844;4.412;2023-02-24T11:21:09;10.50;99.90
27795;DHT22;15176;50.844;4.412;2023-02-24T11:24:05;11.10;99.90
27795;DHT22;15176;50.844;4.412;2023-02-24T11:26:35;11.70;99.90
27795;DHT22;15176;50.844;4.412;2023-02-24T11:29:33;11.90;99.90
27795;DHT22;15176;50.844;4.412;2023-02-24T11:35:00;11.20;99.90
27795;DHT22;15176;50.844;4.412;2023-02-24T11:37:44;11.20;99.90
27795;DHT22;15176;50.844;4.412;2023-02-24T11:40:12;11.50;99.90
27795;DHT22;15176;50.844;4.412;2023-02-24T11:42:57;11.40;99.90
27795;DHT22;15176;50.844;4.412;2023-02-24T11:45:45;11.40;99.90
27795;DHT22;15176;50.844;4.412;2023-02-24T11:48:32;11.50;99.90
27795;DHT22;15176;50.844;4.412;2023-02-24T11:53:46;11.80;99.90
27795;DHT22;15176;50.844;4.412;2023-02-24T11:56:24;12.20;99.90
27795;DHT22;15176;50.844;4.412;2023-02-24T11:59:03;11.80;99.90
27795;DHT22;15176;50.844;4.412;2023-02-24T12:01:37;11.30;99.90
27795;DHT22;15176;50.844;4.412;2023-02-24T12:04:18;11.00;99.90
27795;DHT22;15176;50.844;4.412;2023-02-24T12:07:20;10.80;99.90
27795;DHT22;15176;50.844;4.412;2023-02-24T12:09:52;10.70;99.90
27795;DHT22;15176;50.844;4.412;2023-02-24T12:12:24;10.40;99.90
27795;DHT22;15176;50.844;4.412;2023-02-24T12:15:02;10.00;99.90
27795;DHT22;15176;50.844;4.412;2023-02-24T12:17:43;10.40;99.90
27795;DHT22;15176;50.844;4.412;2023-02-24T12:23:13;10.90;99.90
27795;DHT22;15176;50.844;4.412;2023-02-24T12:28:41;10.80;99.90
27795;DHT22;15176;50.844;4.412;2023-02-24T12:31:35;10.70;99.90
27795;DHT22;15176;50.844;4.412;2023-02-24T12:51:07;10.40;99.90
27795;DHT22;15176;50.844;4.412;2023-02-24T12:53:54;10.70;99.90
27795;DHT22;15176;50.844;4.412;2023-02-24T12:56:25;10.90;99.90
27795;DHT22;15176;50.844;4.412;2023-02-24T12:59:00;10.80;99.90
27795;DHT22;15176;50.844;4.412;2023-02-24T13:13:03;10.90;99.90
27795;DHT22;15176;50.844;4.412;2023-02-24T13:15:29;10.60;99.90
27795;DHT22;15176;50.844;4.412;2023-02-24T13:17:58;10.70;99.90
27795;DHT22;15176;50.844;4.412;2023-02-24T13:20:35;10.70;99.90
27795;DHT22;15176;50.844;4.412;2023-02-24T13:23:15;10.70;99.90
27795;DHT22;15176;50.844;4.412;2023-02-24T13:25:52;10.90;99.90
27795;DHT22;15176;50.844;4.412;2023-02-24T13:28:32;11.10;99.90
27795;DHT22;15176;50.844;4.412;2023-02-24T13:31:10;10.70;99.90
27795;DHT22;15176;50.844;4.412;2023-02-24T13:33:39;10.50;99.90
27795;DHT22;15176;50.844;4.412;2023-02-24T13:36:19;10.20;99.90
27795;DHT22;15176;50.844;4.412;2023-02-24T13:39:07;10.50;99.90
27795;DHT22;15176;50.844;4.412;2023-02-24T13:41:44;10.70;99.90
27795;DHT22;15176;50.844;4.412;2023-02-24T13:44:27;10.70;99.90
27795;DHT22;15176;50.844;4.412;2023-02-24T13:57:53;10.60;99.90
27795;DHT22;15176;50.844;4.412;2023-02-24T14:00:33;10.40;99.90
27795;DHT22;15176;50.844;4.412;2023-02-24T14:03:09;10.20;99.90
27795;DHT22;15176;50.844;4.412;2023-02-24T14:05:36;10.40;99.90
27795;DHT22;15176;50.844;4.412;2023-02-24T14:08:04;10.30;99.90
27795;DHT22;15176;50.844;4.412;2023-02-24T14:10:32;10.30;99.90
27795;DHT22;15176;50.844;4.412;2023-02-24T14:13:22;10.20;99.90
27795;DHT22;15176;50.844;4.412;2023-02-24T14:15:52;10.20;99.90
27795;DHT22;15176;50.844;4.412;2023-02-24T14:18:24;10.10;99.90
27795;DHT22;15176;50.844;4.412;2023-02-24T14:20:51;10.20;99.90
27795;DHT22;15176;50.844;4.412;2023-02-24T14:23:25;10.30;99.90
27795;DHT22;15176;50.844;4.412;2023-02-24T14:26:00;10.20;99.90
27795;DHT22;15176;50.844;4.412;2023-02-24T14:28:29;10.00;99.90
27795;DHT22;15176;50.844;4.412;2023-02-24T14:30:58;10.00;99.90
27795;DHT22;15176;50.844;4.412;2023-02-24T14:33:35;9.80;99.90
27795;DHT22;15176;50.844;4.412;2023-02-24T14:36:12;9.90;99.90
27795;DHT22;15176;50.844;4.412;2023-02-24T14:38:43;10.10;99.90
27795;DHT22;15176;50.844;4.412;2023-02-24T14:41:25;10.30;99.90
27795;DHT22;15176;50.844;4.412;2023-02-24T14:43:53;10.30;99.90
27795;DHT22;15176;50.844;4.412;2023-02-24T14:46:20;10.00;99.90
27795;DHT22;15176;50.844;4.412;2023-02-24T14:48:54;10.10;99.90
27795;DHT22;15176;50.844;4.412;2023-02-24T14:51:33;9.80;99.90
27795;DHT22;15176;50.844;4.412;2023-02-24T14:54:02;10.00;99.90
27795;DHT22;15176;50.844;4.412;2023-02-24T14:56:32;9.70;99.90
27795;DHT22;15176;50.844;4.412;2023-02-24T14:59:23;9.30;99.90
27795;DHT22;15176;50.844;4.412;2023-02-24T15:01:52;9.30;99.90
27795;DHT22;15176;50.844;4.412;2023-02-24T15:04:37;9.20;99.90
27795;DHT22;15176;50.844;4.412;2023-02-24T15:07:14;9.20;99.90
27795;DHT22;15176;50.844;4.412;2023-02-24T15:09:43;9.70;99.90
27795;DHT22;15176;50.844;4.412;2023-02-24T15:12:32;9.80;99.90
27795;DHT22;15176;50.844;4.412;2023-02-24T15:15:12;9.70;99.90
27795;DHT22;15176;50.844;4.412;2023-02-24T15:17:42;9.60;99.90
27795;DHT22;15176;50.844;4.412;2023-02-24T15:20:35;9.70;99.90
27795;DHT22;15176;50.844;4.412;2023-02-24T15:23:03;10.30;99.90
27795;DHT22;15176;50.844;4.412;2023-02-24T15:25:41;10.10;99.90
27795;DHT22;15176;50.844;4.412;2023-02-24T15:28:30;10.40;99.90
27795;DHT22;15176;50.844;4.412;2023-02-24T15:31:08;10.10;99.90
27795;DHT22;15176;50.844;4.412;2023-02-24T15:33:45;10.30;99.90
27795;DHT22;15176;50.844;4.412;2023-02-24T15:36:20;10.60;99.90
27795;DHT22;15176;50.844;4.412;2023-02-24T15:38:54;10.30;99.90
27795;DHT22;15176;50.844;4.412;2023-02-24T15:41:21;10.30;99.90
27795;DHT22;15176;50.844;4.412;2023-02-24T15:43:49;10.30;99.90
27795;DHT22;15176;50.844;4.412;2023-02-24T15:46:31;10.30;99.90
27795;DHT22;15176;50.844;4.412;2023-02-24T15:48:57;10.40;99.90
27795;DHT22;15176;50.844;4.412;2023-02-24T15:53:56;11.00;99.90
27795;DHT22;15176;50.844;4.412;2023-02-24T15:56:23;10.90;99.90
27795;DHT22;15176;50.844;4.412;2023-02-24T15:58:49;10.70;99.90
27795;DHT22;15176;50.844;4.412;2023-02-24T16:01:15;10.80;99.90
27795;DHT22;15176;50.844;4.412;2023-02-24T16:03:41;11.00;99.90
27795;DHT22;15176;50.844;4.412;2023-02-24T16:06:16;11.20;99.90
27795;DHT22;15176;50.844;4.412;2023-02-24T16:08:43;10.80;99.90
27795;DHT22;15176;50.844;4.412;2023-02-24T16:11:12;10.80;99.90
27795;DHT22;15176;50.844;4.412;2023-02-24T16:13:39;10.90;99.90
27795;DHT22;15176;50.844;4.412;2023-02-24T16:16:06;10.60;99.90
27795;DHT22;15176;50.844;4.412;2023-02-24T16:18:34;10.70;99.90
27795;DHT22;15176;50.844;4.412;2023-02-24T16:21:00;10.50;99.90
27795;DHT22;15176;50.844;4.412;2023-02-24T16:23:26;10.90;99.90
27795;DHT22;15176;50.844;4.412;2023-02-24T16:25:57;11.00;99.90
27795;DHT22;15176;50.844;4.412;2023-02-24T16:28:23;10.90;99.90
27795;DHT22;15176;50.844;4.412;2023-02-24T16:30:50;11.10;99.90
27795;DHT22;15176;50.844;4.412;2023-02-24T16:33:18;10.90;99.90
27795;DHT22;15176;50.844;4.412;2023-02-24T16:35:45;10.80;99.90
27795;DHT22;15176;50.844;4.412;2023-02-24T16:38:13;10.80;99.90
27795;DHT22;15176;50.844;4.412;2023-02-24T16:40:41;10.80;99.90
27795;DHT22;15176;50.844;4.412;2023-02-24T16:43:08;10.20;99.90
27795;DHT22;15176;50.844;4.412;2023-02-24T16:45:34;10.40;99.90
27795;DHT22;15176;50.844;4.412;2023-02-24T16:48:04;10.70;99.90
27795;DHT22;15176;50.844;4.412;2023-02-24T16:50:37;10.90;99.90
27795;DHT22;15176;50.844;4.412;2023-02-24T16:53:04;10.80;99.90
27795;DHT22;15176;50.844;4.412;2023-02-24T16:55:30;11.00;99.90
27795;DHT22;15176;50.844;4.412;2023-02-24T16:57:56;11.00;99.90
27795;DHT22;15176;50.844;4.412;2023-02-24T17:00:22;11.00;99.90
27795;DHT22;15176;50.844;4.412;2023-02-24T17:02:49;10.90;99.90
27795;DHT22;15176;50.844;4.412;2023-02-24T17:07:44;10.70;99.90
27795;DHT22;15176;50.844;4.412;2023-02-24T17:10:10;10.30;99.90
27795;DHT22;15176;50.844;4.412;2023-02-24T17:12:37;10.20;99.90
27795;DHT22;15176;50.844;4.412;2023-02-24T17:15:03;9.70;99.90
27795;DHT22;15176;50.844;4.412;2023-02-24T17:17:29;10.00;99.90
27795;DHT22;15176;50.844;4.412;2023-02-24T17:19:55;9.60;99.90
27795;DHT22;15176;50.844;4.412;2023-02-24T17:22:21;9.60;99.90
27795;DHT22;15176;50.844;4.412;2023-02-24T17:24:48;9.50;99.90
27795;DHT22;15176;50.844;4.412;2023-02-24T17:27:14;9.60;99.90
27795;DHT22;15176;50.844;4.412;2023-02-24T17:29:43;9.40;99.90
27795;DHT22;15176;50.844;4.412;2023-02-24T17:32:14;9.20;99.90
27795;DHT22;15176;50.844;4.412;2023-02-24T17:34:40;9.50;99.90
27795;DHT22;15176;50.844;4.412;2023-02-24T17:37:05;9.30;99.90
27795;DHT22;15176;50.844;4.412;2023-02-24T17:39:31;9.60;99.90
27795;DHT22;15176;50.844;4.412;2023-02-24T17:41:57;9.90;99.90
27795;DHT22;15176;50.844;4.412;2023-02-24T17:44:23;9.90;99.90
27795;DHT22;15176;50.844;4.412;2023-02-24T17:46:48;10.00;99.90
27795;DHT22;15176;50.844;4.412;2023-02-24T17:49:16;10.10;99.90
27795;DHT22;15176;50.844;4.412;2023-02-24T17:51:42;9.90;99.90
27795;DHT22;15176;50.844;4.412;2023-02-24T17:54:08;9.90;99.90
27795;DHT22;15176;50.844;4.412;2023-02-24T17:56:33;9.80;99.90
27795;DHT22;15176;50.844;4.412;2023-02-24T17:58:59;9.80;99.90
27795;DHT22;15176;50.844;4.412;2023-02-24T18:01:26;9.70;99.90
27795;DHT22;15176;50.844;4.412;2023-02-24T18:03:53;9.50;99.90
27795;DHT22;15176;50.844;4.412;2023-02-24T18:06:20;9.40;99.90
27795;DHT22;15176;50.844;4.412;2023-02-24T18:08:45;9.00;99.90
27795;DHT22;15176;50.844;4.412;2023-02-24T18:11:16;8.90;99.90